Dexter, Michigan
Current Conditions -  °F | °C
As of 7:53 PM on Sunday 21 Dec 2014 (Local Time) from KARB Reporting Station
Overcast Overcast  
Wind Chill: 23°   Ceiling: 5000
Heat Index: 30°   Visibility: 8mi
Dew Point: 24°   Wind: 7mph
Humidity: 79%   Direction: 130°SE
Pressure: 30.21"   Gusts: NA
Location:  42.34°N, 83.89°W
Report Text: KARB 220053Z 13006KT 8SM OVC050 M01/M04 A3021 RMK AO2 SLP242 T10111044
Loading
Personal Weather Stations






























Interactive Weather Map New forecast layout! Learn more

10-Day Weather Forecast

Advertisements
Track Severe Weather on mobile